sensor_id;sensor_type;location;lat;lon;timestamp;temperature;humidity
79439;DHT22;68889;48.232;10.110;2023-11-21T00:02:22;7.80;97.50
79439;DHT22;68889;48.232;10.110;2023-11-21T00:04:48;7.80;97.30
79439;DHT22;68889;48.232;10.110;2023-11-21T00:07:14;7.70;97.50
79439;DHT22;68889;48.232;10.110;2023-11-21T00:09:41;7.70;97.90
79439;DHT22;68889;48.232;10.110;2023-11-21T00:12:07;7.70;97.50
79439;DHT22;68889;48.232;10.110;2023-11-21T00:14:38;7.70;97.40
79439;DHT22;68889;48.232;10.110;2023-11-21T00:17:04;7.70;97.30
79439;DHT22;68889;48.232;10.110;2023-11-21T00:19:32;7.70;97.80
79439;DHT22;68889;48.232;10.110;2023-11-21T00:21:58;7.60;98.70
79439;DHT22;68889;48.232;10.110;2023-11-21T00:24:25;7.60;98.20
79439;DHT22;68889;48.232;10.110;2023-11-21T00:26:51;7.60;98.80
79439;DHT22;68889;48.232;10.110;2023-11-21T00:29:17;7.50;98.30
79439;DHT22;68889;48.232;10.110;2023-11-21T00:31:44;7.50;98.60
79439;DHT22;68889;48.232;10.110;2023-11-21T00:34:12;7.50;98.10
79439;DHT22;68889;48.232;10.110;2023-11-21T00:36:37;7.50;99.00
79439;DHT22;68889;48.232;10.110;2023-11-21T00:39:03;7.50;98.70
79439;DHT22;68889;48.232;10.110;2023-11-21T00:41:31;7.60;99.10
79439;DHT22;68889;48.232;10.110;2023-11-21T00:43:58;7.60;99.00
79439;DHT22;68889;48.232;10.110;2023-11-21T00:46:24;7.60;98.90
79439;DHT22;68889;48.232;10.110;2023-11-21T00:48:53;7.60;99.30
79439;DHT22;68889;48.232;10.110;2023-11-21T00:51:19;7.50;99.10
79439;DHT22;68889;48.232;10.110;2023-11-21T00:53:47;7.50;99.10
79439;DHT22;68889;48.232;10.110;2023-11-21T00:56:14;7.60;99.50
79439;DHT22;68889;48.232;10.110;2023-11-21T00:58:40;7.60;99.40
79439;DHT22;68889;48.232;10.110;2023-11-21T01:01:12;7.60;99.50
79439;DHT22;68889;48.232;10.110;2023-11-21T01:03:37;7.60;99.10
79439;DHT22;68889;48.232;10.110;2023-11-21T01:06:03;7.60;99.10
79439;DHT22;68889;48.232;10.110;2023-11-21T01:08:32;7.60;99.10
79439;DHT22;68889;48.232;10.110;2023-11-21T01:10:58;7.60;99.10
79439;DHT22;68889;48.232;10.110;2023-11-21T01:13:24;7.60;99.30
79439;DHT22;68889;48.232;10.110;2023-11-21T01:15:54;7.60;99.30
79439;DHT22;68889;48.232;10.110;2023-11-21T01:18:25;7.60;99.30
79439;DHT22;68889;48.232;10.110;2023-11-21T01:20:51;7.60;99.20
79439;DHT22;68889;48.232;10.110;2023-11-21T01:23:20;7.60;99.30
79439;DHT22;68889;48.232;10.110;2023-11-21T01:25:47;7.60;99.80
79439;DHT22;68889;48.232;10.110;2023-11-21T01:28:13;7.60;99.40
79439;DHT22;68889;48.232;10.110;2023-11-21T01:30:38;7.60;99.40
79439;DHT22;68889;48.232;10.110;2023-11-21T01:33:04;7.60;99.50
79439;DHT22;68889;48.232;10.110;2023-11-21T01:35:30;7.60;99.40
79439;DHT22;68889;48.232;10.110;2023-11-21T01:37:56;7.60;99.30
79439;DHT22;68889;48.232;10.110;2023-11-21T01:40:22;7.60;99.20
79439;DHT22;68889;48.232;10.110;2023-11-21T01:42:49;7.60;99.20
79439;DHT22;68889;48.232;10.110;2023-11-21T01:45:15;7.60;99.20
79439;DHT22;68889;48.232;10.110;2023-11-21T01:47:41;7.60;98.80
79439;DHT22;68889;48.232;10.110;2023-11-21T01:50:08;7.60;99.20
79439;DHT22;68889;48.232;10.110;2023-11-21T01:52:38;7.60;99.00
79439;DHT22;68889;48.232;10.110;2023-11-21T01:55:06;7.50;99.10
79439;DHT22;68889;48.232;10.110;2023-11-21T01:57:36;7.50;98.70
79439;DHT22;68889;48.232;10.110;2023-11-21T02:00:03;7.60;98.90
79439;DHT22;68889;48.232;10.110;2023-11-21T02:02:45;7.60;99.10
79439;DHT22;68889;48.232;10.110;2023-11-21T02:05:12;7.60;98.70
79439;DHT22;68889;48.232;10.110;2023-11-21T02:07:39;7.60;99.10
79439;DHT22;68889;48.232;10.110;2023-11-21T02:10:07;7.60;99.20
79439;DHT22;68889;48.232;10.110;2023-11-21T02:12:33;7.50;99.40
79439;DHT22;68889;48.232;10.110;2023-11-21T02:15:03;7.50;99.40
79439;DHT22;68889;48.232;10.110;2023-11-21T02:17:43;7.50;99.70
79439;DHT22;68889;48.232;10.110;2023-11-21T02:20:10;7.50;99.60
79439;DHT22;68889;48.232;10.110;2023-11-21T02:22:41;7.40;99.70
79439;DHT22;68889;48.232;10.110;2023-11-21T02:25:09;7.40;99.80
79439;DHT22;68889;48.232;10.110;2023-11-21T02:27:34;7.40;99.80
79439;DHT22;68889;48.232;10.110;2023-11-21T02:30:00;7.40;99.90
79439;DHT22;68889;48.232;10.110;2023-11-21T02:32:26;7.40;99.90
79439;DHT22;68889;48.232;10.110;2023-11-21T02:34:54;7.30;99.90
79439;DHT22;68889;48.232;10.110;2023-11-21T02:37:21;7.30;99.90
79439;DHT22;68889;48.232;10.110;2023-11-21T02:39:46;7.30;99.90
79439;DHT22;68889;48.232;10.110;2023-11-21T02:42:12;7.30;99.90
79439;DHT22;68889;48.232;10.110;2023-11-21T02:44:38;7.30;99.90
79439;DHT22;68889;48.232;10.110;2023-11-21T02:47:04;7.30;99.90
79439;DHT22;68889;48.232;10.110;2023-11-21T02:49:30;7.30;99.90
79439;DHT22;68889;48.232;10.110;2023-11-21T02:51:56;7.30;99.90
79439;DHT22;68889;48.232;10.110;2023-11-21T02:54:22;7.30;99.90
79439;DHT22;68889;48.232;10.110;2023-11-21T02:56:48;7.20;99.90
79439;DHT22;68889;48.232;10.110;2023-11-21T02:59:15;7.30;99.90
79439;DHT22;68889;48.232;10.110;2023-11-21T03:01:41;7.20;99.80
79439;DHT22;68889;48.232;10.110;2023-11-21T03:04:08;7.20;99.90
79439;DHT22;68889;48.232;10.110;2023-11-21T03:06:35;7.20;99.70
79439;DHT22;68889;48.232;10.110;2023-11-21T03:09:00;7.20;99.80
79439;DHT22;68889;48.232;10.110;2023-11-21T03:11:26;7.20;99.90
79439;DHT22;68889;48.232;10.110;2023-11-21T03:13:52;7.20;99.90
79439;DHT22;68889;48.232;10.110;2023-11-21T03:16:19;7.20;99.60
79439;DHT22;68889;48.232;10.110;2023-11-21T03:18:45;7.20;99.50
79439;DHT22;68889;48.232;10.110;2023-11-21T03:21:12;7.20;99.80
79439;DHT22;68889;48.232;10.110;2023-11-21T03:23:38;7.20;99.90
79439;DHT22;68889;48.232;10.110;2023-11-21T03:26:05;7.30;99.90
79439;DHT22;68889;48.232;10.110;2023-11-21T03:28:33;7.30;99.90
79439;DHT22;68889;48.232;10.110;2023-11-21T03:31:00;7.30;99.70
79439;DHT22;68889;48.232;10.110;2023-11-21T03:33:26;7.30;99.70
79439;DHT22;68889;48.232;10.110;2023-11-21T03:35:51;7.30;99.90
79439;DHT22;68889;48.232;10.110;2023-11-21T03:38:18;7.30;99.80
79439;DHT22;68889;48.232;10.110;2023-11-21T03:40:44;7.30;99.40
79439;DHT22;68889;48.232;10.110;2023-11-21T03:43:10;7.40;99.70
79439;DHT22;68889;48.232;10.110;2023-11-21T03:45:36;7.40;99.50
79439;DHT22;68889;48.232;10.110;2023-11-21T03:48:03;7.40;99.60
79439;DHT22;68889;48.232;10.110;2023-11-21T03:50:29;7.40;99.30
79439;DHT22;68889;48.232;10.110;2023-11-21T03:52:55;7.40;99.40
79439;DHT22;68889;48.232;10.110;2023-11-21T03:55:20;7.40;99.50
79439;DHT22;68889;48.232;10.110;2023-11-21T03:57:46;7.40;99.70
79439;DHT22;68889;48.232;10.110;2023-11-21T04:00:12;7.40;99.90
79439;DHT22;68889;48.232;10.110;2023-11-21T04:02:38;7.40;99.60
79439;DHT22;68889;48.232;10.110;2023-11-21T04:05:05;7.40;99.50
79439;DHT22;68889;48.232;10.110;2023-11-21T04:07:30;7.40;99.40
79439;DHT22;68889;48.232;10.110;2023-11-21T04:09:56;7.50;99.40
79439;DHT22;68889;48.232;10.110;2023-11-21T04:12:22;7.40;99.60
79439;DHT22;68889;48.232;10.110;2023-11-21T04:14:47;7.40;99.70
79439;DHT22;68889;48.232;10.110;2023-11-21T04:17:13;7.40;99.90
79439;DHT22;68889;48.232;10.110;2023-11-21T04:19:39;7.40;99.90
79439;DHT22;68889;48.232;10.110;2023-11-21T04:22:04;7.40;99.90
79439;DHT22;68889;48.232;10.110;2023-11-21T04:24:30;7.40;99.80
79439;DHT22;68889;48.232;10.110;2023-11-21T04:26:55;7.40;99.90
79439;DHT22;68889;48.232;10.110;2023-11-21T04:29:21;7.40;99.90
79439;DHT22;68889;48.232;10.110;2023-11-21T04:31:48;7.40;99.90
79439;DHT22;68889;48.232;10.110;2023-11-21T04:34:14;7.40;99.90
79439;DHT22;68889;48.232;10.110;2023-11-21T04:36:40;7.40;99.90
79439;DHT22;68889;48.232;10.110;2023-11-21T04:39:06;7.40;99.90
79439;DHT22;68889;48.232;10.110;2023-11-21T04:41:32;7.40;99.90
79439;DHT22;68889;48.232;10.110;2023-11-21T04:43:58;7.40;99.90
79439;DHT22;68889;48.232;10.110;2023-11-21T04:46:26;7.40;99.90
79439;DHT22;68889;48.232;10.110;2023-11-21T04:48:52;7.30;99.80
79439;DHT22;68889;48.232;10.110;2023-11-21T04:51:17;7.30;99.90
79439;DHT22;68889;48.232;10.110;2023-11-21T04:53:43;7.30;99.90
79439;DHT22;68889;48.232;10.110;2023-11-21T04:56:09;7.30;99.80
79439;DHT22;68889;48.232;10.110;2023-11-21T04:58:34;7.20;99.70
79439;DHT22;68889;48.232;10.110;2023-11-21T05:01:01;7.20;99.90
79439;DHT22;68889;48.232;10.110;2023-11-21T05:03:27;7.10;99.80
79439;DHT22;68889;48.232;10.110;2023-11-21T05:05:55;7.10;99.90
79439;DHT22;68889;48.232;10.110;2023-11-21T05:08:21;7.10;99.90
79439;DHT22;68889;48.232;10.110;2023-11-21T05:10:47;7.20;99.90
79439;DHT22;68889;48.232;10.110;2023-11-21T05:13:15;7.20;99.90
79439;DHT22;68889;48.232;10.110;2023-11-21T05:15:44;7.10;99.90
79439;DHT22;68889;48.232;10.110;2023-11-21T05:18:10;7.10;99.90
79439;DHT22;68889;48.232;10.110;2023-11-21T05:20:36;7.10;99.90
79439;DHT22;68889;48.232;10.110;2023-11-21T05:23:03;7.20;99.90
79439;DHT22;68889;48.232;10.110;2023-11-21T05:25:29;7.20;99.90
79439;DHT22;68889;48.232;10.110;2023-11-21T05:27:54;7.20;99.90
79439;DHT22;68889;48.232;10.110;2023-11-21T05:30:21;7.20;99.80
79439;DHT22;68889;48.232;10.110;2023-11-21T05:32:47;7.20;99.90
79439;DHT22;68889;48.232;10.110;2023-11-21T05:35:13;7.20;99.80
79439;DHT22;68889;48.232;10.110;2023-11-21T05:37:42;7.20;99.90
79439;DHT22;68889;48.232;10.110;2023-11-21T05:40:08;7.20;99.70
79439;DHT22;68889;48.232;10.110;2023-11-21T05:42:36;7.20;99.60
79439;DHT22;68889;48.232;10.110;2023-11-21T05:45:04;7.20;99.60
79439;DHT22;68889;48.232;10.110;2023-11-21T05:47:44;7.10;99.80
79439;DHT22;68889;48.232;10.110;2023-11-21T05:50:12;7.10;99.90
79439;DHT22;68889;48.232;10.110;2023-11-21T05:52:40;7.10;99.80
79439;DHT22;68889;48.232;10.110;2023-11-21T05:55:07;7.10;99.90
79439;DHT22;68889;48.232;10.110;2023-11-21T05:57:38;7.10;99.40
79439;DHT22;68889;48.232;10.110;2023-11-21T06:00:12;7.00;99.70
79439;DHT22;68889;48.232;10.110;2023-11-21T06:02:43;6.90;99.80
79439;DHT22;68889;48.232;10.110;2023-11-21T06:05:10;6.80;99.90
79439;DHT22;68889;48.232;10.110;2023-11-21T06:07:37;6.80;99.90
79439;DHT22;68889;48.232;10.110;2023-11-21T06:10:07;6.70;99.90
79439;DHT22;68889;48.232;10.110;2023-11-21T06:12:37;6.70;99.90
79439;DHT22;68889;48.232;10.110;2023-11-21T06:15:04;6.80;99.90
79439;DHT22;68889;48.232;10.110;2023-11-21T06:17:31;6.80;99.90
79439;DHT22;68889;48.232;10.110;2023-11-21T06:19:58;6.80;99.90
79439;DHT22;68889;48.232;10.110;2023-11-21T06:22:24;6.80;99.90
79439;DHT22;68889;48.232;10.110;2023-11-21T06:24:49;6.80;99.90
79439;DHT22;68889;48.232;10.110;2023-11-21T06:27:15;6.70;99.90
79439;DHT22;68889;48.232;10.110;2023-11-21T06:29:42;6.70;99.90
79439;DHT22;68889;48.232;10.110;2023-11-21T06:32:10;6.80;99.90
79439;DHT22;68889;48.232;10.110;2023-11-21T06:34:35;6.80;99.90
79439;DHT22;68889;48.232;10.110;2023-11-21T06:37:01;6.80;99.90
79439;DHT22;68889;48.232;10.110;2023-11-21T06:39:26;6.80;99.90
79439;DHT22;68889;48.232;10.110;2023-11-21T06:41:53;6.80;99.90
79439;DHT22;68889;48.232;10.110;2023-11-21T06:44:18;6.70;99.90
79439;DHT22;68889;48.232;10.110;2023-11-21T06:46:45;6.70;99.90
79439;DHT22;68889;48.232;10.110;2023-11-21T06:49:10;6.60;99.90
79439;DHT22;68889;48.232;10.110;2023-11-21T06:51:36;6.60;99.90
79439;DHT22;68889;48.232;10.110;2023-11-21T06:54:02;6.50;99.90
79439;DHT22;68889;48.232;10.110;2023-11-21T06:56:28;6.50;99.90
79439;DHT22;68889;48.232;10.110;2023-11-21T06:58:56;6.40;99.90
79439;DHT22;68889;48.232;10.110;2023-11-21T07:01:22;6.40;99.90
79439;DHT22;68889;48.232;10.110;2023-11-21T07:03:54;6.40;99.90
79439;DHT22;68889;48.232;10.110;2023-11-21T07:06:22;6.50;99.90
79439;DHT22;68889;48.232;10.110;2023-11-21T07:08:48;6.50;99.90
79439;DHT22;68889;48.232;10.110;2023-11-21T07:11:14;6.50;99.90
79439;DHT22;68889;48.232;10.110;2023-11-21T07:13:42;6.60;99.90
79439;DHT22;68889;48.232;10.110;2023-11-21T07:16:08;6.60;99.90
79439;DHT22;68889;48.232;10.110;2023-11-21T07:18:35;6.70;99.90
79439;DHT22;68889;48.232;10.110;2023-11-21T07:21:01;6.80;99.90
79439;DHT22;68889;48.232;10.110;2023-11-21T07:23:27;6.80;99.90
79439;DHT22;68889;48.232;10.110;2023-11-21T07:25:53;6.90;99.90
79439;DHT22;68889;48.232;10.110;2023-11-21T07:28:18;7.00;99.90
79439;DHT22;68889;48.232;10.110;2023-11-21T07:30:44;7.10;99.90
79439;DHT22;68889;48.232;10.110;2023-11-21T07:33:10;7.10;99.90
79439;DHT22;68889;48.232;10.110;2023-11-21T07:35:36;7.10;99.90
79439;DHT22;68889;48.232;10.110;2023-11-21T07:38:03;7.20;99.90
79439;DHT22;68889;48.232;10.110;2023-11-21T07:40:29;7.20;99.60
79439;DHT22;68889;48.232;10.110;2023-11-21T07:42:54;7.20;99.40
79439;DHT22;68889;48.232;10.110;2023-11-21T07:45:23;7.30;99.80
79439;DHT22;68889;48.232;10.110;2023-11-21T07:47:48;7.30;99.20
79439;DHT22;68889;48.232;10.110;2023-11-21T07:50:14;7.30;99.50
79439;DHT22;68889;48.232;10.110;2023-11-21T07:52:40;7.30;99.60
79439;DHT22;68889;48.232;10.110;2023-11-21T07:55:06;7.40;99.60
79439;DHT22;68889;48.232;10.110;2023-11-21T07:57:33;7.40;99.30
79439;DHT22;68889;48.232;10.110;2023-11-21T07:59:58;7.40;99.30
79439;DHT22;68889;48.232;10.110;2023-11-21T08:02:24;7.50;99.20
79439;DHT22;68889;48.232;10.110;2023-11-21T08:04:51;7.50;99.30
79439;DHT22;68889;48.232;10.110;2023-11-21T08:07:17;7.60;98.90
79439;DHT22;68889;48.232;10.110;2023-11-21T08:09:44;7.70;98.70
79439;DHT22;68889;48.232;10.110;2023-11-21T08:12:09;7.70;98.70
79439;DHT22;68889;48.232;10.110;2023-11-21T08:14:36;7.80;97.90
79439;DHT22;68889;48.232;10.110;2023-11-21T08:17:04;7.90;97.60
79439;DHT22;68889;48.232;10.110;2023-11-21T08:19:30;7.90;97.30
79439;DHT22;68889;48.232;10.110;2023-11-21T08:21:57;8.00;97.30
79439;DHT22;68889;48.232;10.110;2023-11-21T08:24:24;8.00;97.10
79439;DHT22;68889;48.232;10.110;2023-11-21T08:26:50;8.10;96.80
79439;DHT22;68889;48.232;10.110;2023-11-21T08:29:17;8.10;97.20
79439;DHT22;68889;48.232;10.110;2023-11-21T08:31:44;8.20;96.60
79439;DHT22;68889;48.232;10.110;2023-11-21T08:34:12;8.20;96.20
79439;DHT22;68889;48.232;10.110;2023-11-21T08:36:44;8.20;96.20
79439;DHT22;68889;48.232;10.110;2023-11-21T08:39:10;8.30;97.10
79439;DHT22;68889;48.232;10.110;2023-11-21T08:41:36;8.40;96.50
79439;DHT22;68889;48.232;10.110;2023-11-21T08:44:02;8.50;96.10
79439;DHT22;68889;48.232;10.110;2023-11-21T08:46:32;8.60;96.20
79439;DHT22;68889;48.232;10.110;2023-11-21T08:49:00;8.60;94.80
79439;DHT22;68889;48.232;10.110;2023-11-21T08:51:26;8.70;95.50
79439;DHT22;68889;48.232;10.110;2023-11-21T08:53:52;8.80;95.20
79439;DHT22;68889;48.232;10.110;2023-11-21T08:56:18;8.90;94.80
79439;DHT22;68889;48.232;10.110;2023-11-21T08:58:45;9.00;94.60
79439;DHT22;68889;48.232;10.110;2023-11-21T09:01:12;9.00;94.20
79439;DHT22;68889;48.232;10.110;2023-11-21T09:03:39;9.00;93.60
79439;DHT22;68889;48.232;10.110;2023-11-21T09:06:05;9.00;93.70
79439;DHT22;68889;48.232;10.110;2023-11-21T09:08:31;9.10;94.60
79439;DHT22;68889;48.232;10.110;2023-11-21T09:10:57;9.10;93.40
79439;DHT22;68889;48.232;10.110;2023-11-21T09:13:23;9.20;93.30
79439;DHT22;68889;48.232;10.110;2023-11-21T09:15:50;9.20;93.00
79439;DHT22;68889;48.232;10.110;2023-11-21T09:18:17;9.20;94.20
79439;DHT22;68889;48.232;10.110;2023-11-21T09:20:44;9.30;93.70
79439;DHT22;68889;48.232;10.110;2023-11-21T09:23:10;9.30;94.10
79439;DHT22;68889;48.232;10.110;2023-11-21T09:25:36;9.40;93.50
79439;DHT22;68889;48.232;10.110;2023-11-21T09:28:04;9.30;94.00
79439;DHT22;68889;48.232;10.110;2023-11-21T09:30:34;9.40;93.40
79439;DHT22;68889;48.232;10.110;2023-11-21T09:33:01;9.50;94.20
79439;DHT22;68889;48.232;10.110;2023-11-21T09:35:26;9.50;91.70
79439;DHT22;68889;48.232;10.110;2023-11-21T09:37:53;9.50;93.00
79439;DHT22;68889;48.232;10.110;2023-11-21T09:40:21;9.60;91.80
79439;DHT22;68889;48.232;10.110;2023-11-21T09:42:57;9.70;92.40
79439;DHT22;68889;48.232;10.110;2023-11-21T09:45:35;9.80;91.90
79439;DHT22;68889;48.232;10.110;2023-11-21T09:48:03;9.90;90.90
79439;DHT22;68889;48.232;10.110;2023-11-21T09:50:31;9.80;91.30
79439;DHT22;68889;48.232;10.110;2023-11-21T09:55:27;9.80;91.80
79439;DHT22;68889;48.232;10.110;2023-11-21T09:57:56;9.80;92.40
79439;DHT22;68889;48.232;10.110;2023-11-21T10:00:22;10.00;91.40
79439;DHT22;68889;48.232;10.110;2023-11-21T10:02:52;10.10;90.60
79439;DHT22;68889;48.232;10.110;2023-11-21T10:05:18;10.10;89.50
79439;DHT22;68889;48.232;10.110;2023-11-21T10:07:49;10.00;89.90
79439;DHT22;68889;48.232;10.110;2023-11-21T10:10:18;9.90;89.70
79439;DHT22;68889;48.232;10.110;2023-11-21T10:12:55;9.70;90.70
79439;DHT22;68889;48.232;10.110;2023-11-21T10:15:23;9.70;91.00
79439;DHT22;68889;48.232;10.110;2023-11-21T10:17:50;9.60;91.00
79439;DHT22;68889;48.232;10.110;2023-11-21T10:20:20;9.60;91.10
79439;DHT22;68889;48.232;10.110;2023-11-21T10:22:46;9.60;92.50
79439;DHT22;68889;48.232;10.110;2023-11-21T10:25:12;9.70;91.40
79439;DHT22;68889;48.232;10.110;2023-11-21T10:27:42;9.80;91.10
79439;DHT22;68889;48.232;10.110;2023-11-21T10:30:10;9.80;91.00
79439;DHT22;68889;48.232;10.110;2023-11-21T10:32:40;9.70;90.90
79439;DHT22;68889;48.232;10.110;2023-11-21T10:35:09;9.90;90.00
79439;DHT22;68889;48.232;10.110;2023-11-21T10:37:38;10.10;90.20
79439;DHT22;68889;48.232;10.110;2023-11-21T10:40:10;10.20;91.30
79439;DHT22;68889;48.232;10.110;2023-11-21T10:42:38;10.30;90.00
79439;DHT22;68889;48.232;10.110;2023-11-21T10:45:05;10.50;89.30
79439;DHT22;68889;48.232;10.110;2023-11-21T10:47:44;10.60;89.00
79439;DHT22;68889;48.232;10.110;2023-11-21T10:50:10;10.70;88.10
79439;DHT22;68889;48.232;10.110;2023-11-21T10:52:40;10.70;89.20
79439;DHT22;68889;48.232;10.110;2023-11-21T10:55:18;10.70;87.90
79439;DHT22;68889;48.232;10.110;2023-11-21T10:57:52;10.70;89.10
79439;DHT22;68889;48.232;10.110;2023-11-21T11:00:19;10.70;87.90
79439;DHT22;68889;48.232;10.110;2023-11-21T11:02:52;10.70;86.50
79439;DHT22;68889;48.232;10.110;2023-11-21T11:05:21;10.70;88.00
79439;DHT22;68889;48.232;10.110;2023-11-21T11:08:04;10.70;86.70
79439;DHT22;68889;48.232;10.110;2023-11-21T11:10:31;10.80;87.10
79439;DHT22;68889;48.232;10.110;2023-11-21T11:12:59;10.70;87.70
79439;DHT22;68889;48.232;10.110;2023-11-21T11:15:26;10.80;87.40
79439;DHT22;68889;48.232;10.110;2023-11-21T11:17:53;10.80;87.80
79439;DHT22;68889;48.232;10.110;2023-11-21T11:20:23;10.80;86.70
79439;DHT22;68889;48.232;10.110;2023-11-21T11:28:12;10.70;86.20
79439;DHT22;68889;48.232;10.110;2023-11-21T11:36:30;11.00;87.50
79439;DHT22;68889;48.232;10.110;2023-11-21T11:38:56;11.10;85.40
79439;DHT22;68889;48.232;10.110;2023-11-21T11:41:27;11.10;85.40
79439;DHT22;68889;48.232;10.110;2023-11-21T11:43:54;11.10;86.00
79439;DHT22;68889;48.232;10.110;2023-11-21T11:46:19;11.10;84.10
79439;DHT22;68889;48.232;10.110;2023-11-21T11:48:49;11.00;84.00
79439;DHT22;68889;48.232;10.110;2023-11-21T11:51:28;10.90;85.60
79439;DHT22;68889;48.232;10.110;2023-11-21T11:53:54;10.70;85.60
79439;DHT22;68889;48.232;10.110;2023-11-21T11:56:24;10.60;85.40
79439;DHT22;68889;48.232;10.110;2023-11-21T11:58:58;10.60;86.60
79439;DHT22;68889;48.232;10.110;2023-11-21T12:01:25;10.50;86.30
79439;DHT22;68889;48.232;10.110;2023-11-21T12:07:00;10.60;87.20
79439;DHT22;68889;48.232;10.110;2023-11-21T12:09:30;10.50;86.20
79439;DHT22;68889;48.232;10.110;2023-11-21T12:11:56;10.50;86.20
79439;DHT22;68889;48.232;10.110;2023-11-21T12:14:22;10.50;86.80
79439;DHT22;68889;48.232;10.110;2023-11-21T12:16:49;10.40;86.10
79439;DHT22;68889;48.232;10.110;2023-11-21T12:19:14;10.50;85.30
79439;DHT22;68889;48.232;10.110;2023-11-21T12:21:40;10.60;84.50
79439;DHT22;68889;48.232;10.110;2023-11-21T12:24:08;10.70;85.50
79439;DHT22;68889;48.232;10.110;2023-11-21T12:26:42;10.80;84.90
79439;DHT22;68889;48.232;10.110;2023-11-21T12:29:08;11.00;83.90
79439;DHT22;68889;48.232;10.110;2023-11-21T12:31:34;11.30;83.00
79439;DHT22;68889;48.232;10.110;2023-11-21T12:34:00;11.60;83.00
79439;DHT22;68889;48.232;10.110;2023-11-21T12:36:26;11.80;81.30
79439;DHT22;68889;48.232;10.110;2023-11-21T12:38:52;11.90;81.80
79439;DHT22;68889;48.232;10.110;2023-11-21T12:41:19;12.00;82.10
79439;DHT22;68889;48.232;10.110;2023-11-21T12:43:47;12.20;81.40
79439;DHT22;68889;48.232;10.110;2023-11-21T12:46:13;12.50;80.70
79439;DHT22;68889;48.232;10.110;2023-11-21T12:48:44;12.70;79.20
79439;DHT22;68889;48.232;10.110;2023-11-21T12:51:12;12.80;79.50
79439;DHT22;68889;48.232;10.110;2023-11-21T12:53:41;12.60;79.10
79439;DHT22;68889;48.232;10.110;2023-11-21T12:56:12;12.50;79.60
79439;DHT22;68889;48.232;10.110;2023-11-21T12:58:39;12.40;79.30
79439;DHT22;68889;48.232;10.110;2023-11-21T13:01:05;12.20;81.60
79439;DHT22;68889;48.232;10.110;2023-11-21T13:03:37;12.00;81.40
79439;DHT22;68889;48.232;10.110;2023-11-21T13:06:04;12.00;83.60
79439;DHT22;68889;48.232;10.110;2023-11-21T13:08:30;12.10;81.00
79439;DHT22;68889;48.232;10.110;2023-11-21T13:10:58;12.10;82.10
79439;DHT22;68889;48.232;10.110;2023-11-21T13:13:26;12.20;80.60
79439;DHT22;68889;48.232;10.110;2023-11-21T13:15:55;12.40;81.70
79439;DHT22;68889;48.232;10.110;2023-11-21T13:18:22;12.50;81.30
79439;DHT22;68889;48.232;10.110;2023-11-21T13:20:48;12.80;81.70
79439;DHT22;68889;48.232;10.110;2023-11-21T13:23:15;12.90;79.30
79439;DHT22;68889;48.232;10.110;2023-11-21T13:25:44;12.90;80.80
79439;DHT22;68889;48.232;10.110;2023-11-21T13:28:13;12.90;79.80
79439;DHT22;68889;48.232;10.110;2023-11-21T13:30:41;12.90;80.00
79439;DHT22;68889;48.232;10.110;2023-11-21T13:33:08;12.80;80.40
79439;DHT22;68889;48.232;10.110;2023-11-21T13:35:38;12.50;80.50
79439;DHT22;68889;48.232;10.110;2023-11-21T13:38:17;12.30;79.70
79439;DHT22;68889;48.232;10.110;2023-11-21T13:43:16;12.10;80.70
79439;DHT22;68889;48.232;10.110;2023-11-21T13:45:44;11.80;82.60
79439;DHT22;68889;48.232;10.110;2023-11-21T13:48:11;11.60;84.10
79439;DHT22;68889;48.232;10.110;2023-11-21T13:50:46;11.40;85.50
79439;DHT22;68889;48.232;10.110;2023-11-21T13:53:24;11.30;86.90
79439;DHT22;68889;48.232;10.110;2023-11-21T13:55:51;11.10;87.90
79439;DHT22;68889;48.232;10.110;2023-11-21T13:58:23;11.00;87.50
79439;DHT22;68889;48.232;10.110;2023-11-21T14:01:12;11.00;87.80
79439;DHT22;68889;48.232;10.110;2023-11-21T14:03:50;11.10;87.40
79439;DHT22;68889;48.232;10.110;2023-11-21T14:06:22;11.20;88.00
79439;DHT22;68889;48.232;10.110;2023-11-21T14:08:54;11.20;87.20
79439;DHT22;68889;48.232;10.110;2023-11-21T14:11:22;11.10;87.00
79439;DHT22;68889;48.232;10.110;2023-11-21T14:13:47;11.00;88.50
79439;DHT22;68889;48.232;10.110;2023-11-21T14:16:14;10.90;88.30
79439;DHT22;68889;48.232;10.110;2023-11-21T14:18:42;10.90;88.40
79439;DHT22;68889;48.232;10.110;2023-11-21T14:21:21;10.90;89.70
79439;DHT22;68889;48.232;10.110;2023-11-21T14:23:47;11.00;89.40
79439;DHT22;68889;48.232;10.110;2023-11-21T14:26:13;11.00;89.10
79439;DHT22;68889;48.232;10.110;2023-11-21T14:28:41;11.00;89.30
79439;DHT22;68889;48.232;10.110;2023-11-21T14:31:07;11.00;88.40
79439;DHT22;68889;48.232;10.110;2023-11-21T14:33:34;10.90;89.30
79439;DHT22;68889;48.232;10.110;2023-11-21T14:36:00;10.80;90.10
79439;DHT22;68889;48.232;10.110;2023-11-21T14:38:25;10.70;90.70
79439;DHT22;68889;48.232;10.110;2023-11-21T14:40:51;10.60;91.80
79439;DHT22;68889;48.232;10.110;2023-11-21T14:43:17;10.50;92.00
79439;DHT22;68889;48.232;10.110;2023-11-21T14:45:44;10.50;91.70
79439;DHT22;68889;48.232;10.110;2023-11-21T14:48:10;10.30;92.00
79439;DHT22;68889;48.232;10.110;2023-11-21T14:50:42;10.20;92.70
79439;DHT22;68889;48.232;10.110;2023-11-21T14:53:11;10.10;92.90
79439;DHT22;68889;48.232;10.110;2023-11-21T14:55:39;10.00;93.40
79439;DHT22;68889;48.232;10.110;2023-11-21T14:58:20;9.90;93.30
79439;DHT22;68889;48.232;10.110;2023-11-21T15:00:59;9.90;93.30
79439;DHT22;68889;48.232;10.110;2023-11-21T15:03:26;9.80;93.50
79439;DHT22;68889;48.232;10.110;2023-11-21T15:06:09;9.70;93.60
79439;DHT22;68889;48.232;10.110;2023-11-21T15:08:56;9.70;93.80
79439;DHT22;68889;48.232;10.110;2023-11-21T15:11:42;9.60;93.80
79439;DHT22;68889;48.232;10.110;2023-11-21T15:14:07;9.50;94.30
79439;DHT22;68889;48.232;10.110;2023-11-21T15:16:38;9.40;94.40
79439;DHT22;68889;48.232;10.110;2023-11-21T15:19:09;9.40;94.70
79439;DHT22;68889;48.232;10.110;2023-11-21T15:21:43;9.30;95.20
79439;DHT22;68889;48.232;10.110;2023-11-21T15:24:12;9.30;95.40
79439;DHT22;68889;48.232;10.110;2023-11-21T15:26:38;9.30;95.30
79439;DHT22;68889;48.232;10.110;2023-11-21T15:29:04;9.30;94.90
79439;DHT22;68889;48.232;10.110;2023-11-21T15:31:30;9.20;95.10
79439;DHT22;68889;48.232;10.110;2023-11-21T15:33:56;9.20;95.70
79439;DHT22;68889;48.232;10.110;2023-11-21T15:36:26;9.20;95.60
79439;DHT22;68889;48.232;10.110;2023-11-21T15:38:52;9.10;96.00
79439;DHT22;68889;48.232;10.110;2023-11-21T15:41:19;9.00;95.90
79439;DHT22;68889;48.232;10.110;2023-11-21T15:43:44;9.00;95.80
79439;DHT22;68889;48.232;10.110;2023-11-21T15:46:11;9.00;96.00
79439;DHT22;68889;48.232;10.110;2023-11-21T15:48:37;9.00;96.10
79439;DHT22;68889;48.232;10.110;2023-11-21T15:51:06;8.90;96.00